createdAt,value
2022-12-06T00:01:29.133Z,5.15
2022-12-06T00:03:58.081Z,5.53
2022-12-06T00:06:29.131Z,5.32
2022-12-06T00:08:57.344Z,5.57
2022-12-06T00:11:33.023Z,5.65
2022-12-06T00:14:02.766Z,5.53
2022-12-06T00:16:30.421Z,4.78
2022-12-06T00:18:57.985Z,5.57
2022-12-06T00:21:28.444Z,5.00
2022-12-06T00:24:05.658Z,5.47
2022-12-06T00:26:36.667Z,5.10
2022-12-06T00:29:06.927Z,5.20
2022-12-06T00:31:34.658Z,5.50
2022-12-06T00:34:01.527Z,5.38
2022-12-06T00:36:30.777Z,5.03
2022-12-06T00:39:00.744Z,5.03
2022-12-06T00:41:30.726Z,5.47
2022-12-06T00:43:57.359Z,5.70
2022-12-06T00:46:27.656Z,5.35
2022-12-06T00:48:56.189Z,5.45
2022-12-06T00:51:24.598Z,4.75
2022-12-06T00:53:51.793Z,5.00
2022-12-06T00:56:19.143Z,4.95
2022-12-06T00:58:46.302Z,5.30
2022-12-06T01:01:26.590Z,4.85
2022-12-06T01:03:56.718Z,5.20
2022-12-06T01:06:28.151Z,4.65
2022-12-06T01:08:56.995Z,4.85
2022-12-06T01:11:24.526Z,4.07
2022-12-06T01:13:52.003Z,4.68
2022-12-06T01:16:23.804Z,4.30
2022-12-06T01:18:55.690Z,5.07
2022-12-06T01:21:23.400Z,4.53
2022-12-06T01:23:50.426Z,4.22
2022-12-06T01:26:23.031Z,4.32
2022-12-06T01:28:50.133Z,4.28
2022-12-06T01:31:17.284Z,3.53
2022-12-06T01:33:48.598Z,4.10
2022-12-06T01:36:28.534Z,3.80
2022-12-06T01:39:00.462Z,4.05
2022-12-06T01:41:28.425Z,4.32
2022-12-06T01:43:56.410Z,4.30
2022-12-06T01:46:55.848Z,4.38
2022-12-06T01:49:29.587Z,4.38
2022-12-06T01:52:01.338Z,4.18
2022-12-06T01:54:29.500Z,4.70
2022-12-06T01:57:00.881Z,4.00
2022-12-06T01:59:29.046Z,4.35
2022-12-06T02:01:56.768Z,4.15
2022-12-06T02:04:24.265Z,5.15
2022-12-06T02:06:53.816Z,4.25
2022-12-06T02:09:20.908Z,4.47
2022-12-06T02:11:47.534Z,4.00
2022-12-06T02:14:21.367Z,4.13
2022-12-06T02:17:06.758Z,4.68
2022-12-06T02:20:00.855Z,5.13
2022-12-06T02:22:39.585Z,4.90
2022-12-06T02:25:43.799Z,5.18
2022-12-06T02:28:27.783Z,4.32
2022-12-06T02:31:12.454Z,4.63
2022-12-06T02:34:14.334Z,4.78
2022-12-06T02:36:49.389Z,4.97
2022-12-06T02:39:34.619Z,4.72
2022-12-06T02:42:10.511Z,4.72
2022-12-06T02:44:47.991Z,5.35
2022-12-06T02:47:20.808Z,5.35
2022-12-06T02:49:50.255Z,5.28
2022-12-06T02:52:24.198Z,5.00
2022-12-06T02:54:52.432Z,5.53
2022-12-06T02:57:27.203Z,5.25
2022-12-06T02:59:54.907Z,5.65
2022-12-06T03:02:22.878Z,5.43
2022-12-06T03:05:08.008Z,5.15
2022-12-06T03:07:44.362Z,6.00
2022-12-06T03:10:40.717Z,5.10
2022-12-06T03:13:19.898Z,5.47
2022-12-06T03:16:15.340Z,6.03
2022-12-06T03:18:49.869Z,5.72
2022-12-06T03:21:31.139Z,5.30
2022-12-06T03:23:58.273Z,5.30
2022-12-06T03:26:29.346Z,5.30
2022-12-06T03:28:58.101Z,5.25
2022-12-06T03:31:28.569Z,4.50
2022-12-06T03:34:00.344Z,5.18
2022-12-06T03:36:33.699Z,4.97
2022-12-06T03:39:03.994Z,5.25
2022-12-06T03:41:44.757Z,5.00
2022-12-06T03:44:11.709Z,5.40
2022-12-06T03:46:44.230Z,4.50
2022-12-06T03:49:19.500Z,4.38
2022-12-06T03:51:49.540Z,5.38
2022-12-06T03:54:16.343Z,5.05
2022-12-06T03:56:43.153Z,4.55
2022-12-06T03:59:12.970Z,4.78
2022-12-06T04:01:39.956Z,4.60
2022-12-06T04:04:07.139Z,5.25
2022-12-06T04:06:33.693Z,4.82
2022-12-06T04:09:18.934Z,4.72
2022-12-06T04:11:48.048Z,4.53
2022-12-06T04:14:14.617Z,4.20
2022-12-06T04:16:59.730Z,4.30
2022-12-06T04:19:26.321Z,4.55
2022-12-06T04:22:11.451Z,4.38
2022-12-06T04:24:37.959Z,4.75
2022-12-06T04:27:23.103Z,4.75
2022-12-06T04:30:08.009Z,4.65
2022-12-06T04:32:53.228Z,4.65
2022-12-06T04:35:38.558Z,4.53
2022-12-06T04:38:23.785Z,4.43
2022-12-06T04:40:50.366Z,4.40
2022-12-06T04:43:35.480Z,4.20
2022-12-06T04:46:02.274Z,4.30
2022-12-06T04:48:31.420Z,3.85
2022-12-06T04:50:58.042Z,4.30
2022-12-06T04:53:24.606Z,4.30
2022-12-06T04:55:53.613Z,3.67
2022-12-06T04:58:20.188Z,3.97
2022-12-06T05:00:46.827Z,4.38
2022-12-06T05:03:14.955Z,5.07
2022-12-06T05:05:44.582Z,4.18
2022-12-06T05:08:11.443Z,4.15
2022-12-06T05:10:38.388Z,3.83
2022-12-06T05:13:05.315Z,3.35
2022-12-06T05:15:32.385Z,3.05
2022-12-06T05:17:59.125Z,3.58
2022-12-06T05:20:30.408Z,3.40
2022-12-06T05:22:59.285Z,3.15
2022-12-06T05:25:25.783Z,3.40
2022-12-06T05:27:52.316Z,3.00
2022-12-06T05:30:18.832Z,3.03
2022-12-06T05:32:45.365Z,3.05
2022-12-06T05:35:14.357Z,3.63
2022-12-06T05:37:40.893Z,2.78
2022-12-06T05:40:07.937Z,2.95
2022-12-06T05:42:34.489Z,3.17
2022-12-06T05:45:01.714Z,3.40
2022-12-06T05:47:28.220Z,3.22
2022-12-06T05:49:54.705Z,3.40
2022-12-06T05:52:21.308Z,3.40
2022-12-06T05:54:50.395Z,3.25
2022-12-06T05:57:19.541Z,2.55
2022-12-06T05:59:48.391Z,3.35
2022-12-06T06:02:15.031Z,3.45
2022-12-06T06:04:41.689Z,2.80
2022-12-06T06:07:08.208Z,2.80
2022-12-06T06:09:34.769Z,2.88
2022-12-06T06:12:01.300Z,3.08
2022-12-06T06:14:28.256Z,2.78
2022-12-06T06:16:54.888Z,2.90
2022-12-06T06:19:23.868Z,2.90
2022-12-06T06:21:50.697Z,2.47
2022-12-06T06:24:17.276Z,2.95
2022-12-06T06:26:43.882Z,3.05
2022-12-06T06:29:10.463Z,2.33
2022-12-06T06:31:39.388Z,2.40
2022-12-06T06:34:10.427Z,2.60
2022-12-06T06:36:41.099Z,2.40
2022-12-06T06:39:29.016Z,2.10
2022-12-06T06:41:56.207Z,2.72
2022-12-06T06:44:25.311Z,2.40
2022-12-06T06:46:51.848Z,2.20
2022-12-06T06:49:20.731Z,2.40
2022-12-06T06:51:47.579Z,2.10
2022-12-06T06:54:15.381Z,2.35
2022-12-06T06:56:41.915Z,2.63
2022-12-06T06:59:10.786Z,2.15
2022-12-06T07:01:38.422Z,2.20
2022-12-06T07:04:05.269Z,2.03
2022-12-06T07:06:34.195Z,1.90
2022-12-06T07:09:00.769Z,2.20
2022-12-06T07:11:27.435Z,2.55
2022-12-06T07:13:54.031Z,2.67
2022-12-06T07:16:21.085Z,2.78
2022-12-06T07:18:47.787Z,2.30
2022-12-06T07:21:16.725Z,2.30
2022-12-06T07:23:46.102Z,2.30
2022-12-06T07:26:28.108Z,1.90
2022-12-06T07:28:58.915Z,2.40
2022-12-06T07:31:31.737Z,2.25
2022-12-06T07:34:06.268Z,1.83
2022-12-06T07:36:35.270Z,2.33
2022-12-06T07:39:06.012Z,2.03
2022-12-06T07:41:55.554Z,2.47
2022-12-06T07:44:47.772Z,3.05
2022-12-06T07:47:14.501Z,2.40
2022-12-06T07:49:41.051Z,2.15
2022-12-06T07:52:09.829Z,2.30
2022-12-06T07:54:40.372Z,2.08
2022-12-06T07:57:12.714Z,2.85
2022-12-06T07:59:39.404Z,2.50
2022-12-06T08:02:05.989Z,2.13
2022-12-06T08:04:35.783Z,2.25
2022-12-06T08:07:03.482Z,2.50
2022-12-06T08:09:33.270Z,3.10
2022-12-06T08:12:04.601Z,2.53
2022-12-06T08:14:35.692Z,2.30
2022-12-06T08:17:06.533Z,2.22
2022-12-06T08:19:35.343Z,2.45
2022-12-06T08:22:05.929Z,2.22
2022-12-06T08:24:38.554Z,2.35
2022-12-06T08:27:11.131Z,2.38
2022-12-06T08:29:47.091Z,2.25
2022-12-06T08:32:23.977Z,1.95
2022-12-06T08:34:54.407Z,1.98
2022-12-06T08:37:45.178Z,6.35
2022-12-06T08:40:12.786Z,2.60
2022-12-06T08:42:40.114Z,2.33
2022-12-06T08:45:09.499Z,2.78
2022-12-06T08:47:39.222Z,2.30
2022-12-06T08:50:09.077Z,2.33
2022-12-06T08:52:42.594Z,1.90
2022-12-06T08:55:11.127Z,2.55
2022-12-06T08:57:40.105Z,2.30
2022-12-06T09:00:12.079Z,2.30
2022-12-06T09:02:44.940Z,2.42
2022-12-06T09:05:13.102Z,2.75
2022-12-06T09:07:39.700Z,2.57
2022-12-06T09:10:10.950Z,2.65
2022-12-06T09:12:41.698Z,2.30
2022-12-06T09:15:10.130Z,3.00
2022-12-06T09:17:41.093Z,2.83
2022-12-06T09:20:10.026Z,2.38
2022-12-06T09:22:38.267Z,2.90
2022-12-06T09:25:08.277Z,2.30
2022-12-06T09:27:42.595Z,2.97
2022-12-06T09:30:10.742Z,2.92
2022-12-06T09:32:44.167Z,2.38
2022-12-06T09:35:15.317Z,2.63
2022-12-06T09:37:56.555Z,3.13
2022-12-06T09:40:55.627Z,2.78
2022-12-06T09:43:59.670Z,2.50
2022-12-06T09:46:34.745Z,2.70
2022-12-06T09:49:30.611Z,2.25
2022-12-06T09:52:08.166Z,2.15
2022-12-06T09:54:34.741Z,2.47
2022-12-06T09:57:14.111Z,2.63
2022-12-06T10:00:07.487Z,2.50
2022-12-06T10:02:44.253Z,2.33
2022-12-06T10:05:52.064Z,2.60
2022-12-06T10:08:50.594Z,2.30
2022-12-06T10:11:40.079Z,2.25
2022-12-06T10:14:37.402Z,2.03
2022-12-06T10:17:37.383Z,2.28
2022-12-06T10:20:07.059Z,2.42
2022-12-06T10:22:48.170Z,2.70
2022-12-06T10:25:26.049Z,2.08
2022-12-06T10:28:13.414Z,2.00
2022-12-06T10:30:52.458Z,2.15
2022-12-06T10:33:43.566Z,2.05
2022-12-06T10:36:16.089Z,1.77
2022-12-06T10:38:50.978Z,2.15
2022-12-06T10:41:17.589Z,2.50
2022-12-06T10:43:55.458Z,2.40
2022-12-06T10:47:06.811Z,2.50
2022-12-06T10:49:55.641Z,2.38
2022-12-06T10:52:34.556Z,4.35
2022-12-06T10:55:10.376Z,2.20
2022-12-06T10:57:53.943Z,2.50
2022-12-06T11:00:24.387Z,2.72
2022-12-06T11:03:04.385Z,2.33
2022-12-06T11:05:37.841Z,2.38
2022-12-06T11:08:15.461Z,2.85
2022-12-06T11:10:45.047Z,2.33
2022-12-06T11:13:24.572Z,2.00
2022-12-06T11:16:20.656Z,2.05
2022-12-06T11:18:51.573Z,1.70
2022-12-06T11:21:33.490Z,1.63
2022-12-06T11:24:08.499Z,1.30
2022-12-06T11:26:43.701Z,1.95
2022-12-06T11:29:15.034Z,1.55
2022-12-06T11:31:50.618Z,2.10
2022-12-06T11:34:23.158Z,2.45
2022-12-06T11:36:58.185Z,1.70
2022-12-06T11:39:27.100Z,2.00
2022-12-06T11:41:57.412Z,1.67
2022-12-06T11:44:28.202Z,1.80
2022-12-06T11:47:00.683Z,1.92
2022-12-06T11:49:38.889Z,1.73
2022-12-06T11:52:13.485Z,1.85
2022-12-06T11:54:53.940Z,2.05
2022-12-06T11:57:42.769Z,2.28
2022-12-06T12:00:18.551Z,2.10
2022-12-06T12:02:47.313Z,2.03
2022-12-06T12:05:19.780Z,2.13
2022-12-06T12:08:02.249Z,2.00
2022-12-06T12:10:32.136Z,2.08
2022-12-06T12:13:35.121Z,3.25
2022-12-06T12:16:12.335Z,2.65
2022-12-06T12:18:43.945Z,2.10
2022-12-06T12:21:13.242Z,2.95
2022-12-06T12:23:47.712Z,2.00
2022-12-06T12:26:19.628Z,1.98
2022-12-06T12:29:04.863Z,1.80
2022-12-06T12:31:31.829Z,2.30
2022-12-06T12:34:27.436Z,2.28
2022-12-06T12:36:58.934Z,1.98
2022-12-06T12:39:45.611Z,2.50
2022-12-06T12:42:35.156Z,1.40
2022-12-06T12:45:07.303Z,1.35
2022-12-06T12:47:56.713Z,1.73
2022-12-06T12:50:26.073Z,1.77
2022-12-06T12:52:53.498Z,1.63
2022-12-06T12:55:27.524Z,1.88
2022-12-06T12:57:56.622Z,1.88
2022-12-06T13:00:36.445Z,1.50
2022-12-06T13:03:28.582Z,1.30
2022-12-06T13:05:57.662Z,1.50
2022-12-06T13:08:33.736Z,1.35
2022-12-06T13:11:02.734Z,1.70
2022-12-06T13:13:53.800Z,1.27
2022-12-06T13:16:29.723Z,1.90
2022-12-06T13:19:59.337Z,1.42
2022-12-06T13:22:29.915Z,1.45
2022-12-06T13:25:07.907Z,1.67
2022-12-06T13:27:43.436Z,1.48
2022-12-06T13:30:19.491Z,1.25
2022-12-06T13:32:54.652Z,1.30
2022-12-06T13:35:31.640Z,1.50
2022-12-06T13:38:01.681Z,1.60
2022-12-06T13:40:45.618Z,1.20
2022-12-06T13:43:40.181Z,1.40
2022-12-06T13:46:07.245Z,1.13
2022-12-06T13:48:33.794Z,1.40
2022-12-06T13:51:12.995Z,1.10
2022-12-06T13:54:09.815Z,1.00
2022-12-06T13:56:36.339Z,1.15
2022-12-06T13:59:25.837Z,1.10
2022-12-06T14:01:57.098Z,1.50
2022-12-06T14:07:03.510Z,1.27
2022-12-06T14:09:45.773Z,1.38
2022-12-06T14:12:26.563Z,1.30
2022-12-06T14:15:05.909Z,1.70
2022-12-06T14:18:01.639Z,1.60
2022-12-06T14:20:29.035Z,1.92
2022-12-06T14:22:56.456Z,5.05
2022-12-06T14:25:26.979Z,2.15
2022-12-06T14:28:04.111Z,2.08
2022-12-06T14:30:31.085Z,2.30
2022-12-06T14:32:59.416Z,1.85
2022-12-06T14:35:29.991Z,1.98
2022-12-06T14:37:57.753Z,1.75
2022-12-06T14:41:10.803Z,1.50
2022-12-06T14:43:38.851Z,2.00
2022-12-06T14:46:08.680Z,1.98
2022-12-06T14:48:54.315Z,2.05
2022-12-06T14:51:26.903Z,1.92
2022-12-06T14:53:53.578Z,2.50
2022-12-06T14:56:31.962Z,2.20
2022-12-06T15:00:13.122Z,2.25
2022-12-06T15:02:28.671Z,2.03
2022-12-06T15:04:57.396Z,2.20
2022-12-06T15:07:48.480Z,2.33
2022-12-06T15:10:26.067Z,2.00
2022-12-06T15:12:58.212Z,1.83
2022-12-06T15:15:33.729Z,2.60
2022-12-06T15:18:22.506Z,2.53
2022-12-06T15:20:50.070Z,2.20
2022-12-06T15:23:38.753Z,2.17
2022-12-06T15:26:08.432Z,2.20
2022-12-06T15:28:35.850Z,2.45
2022-12-06T15:31:07.525Z,2.20
2022-12-06T15:33:36.660Z,2.53
2022-12-06T15:36:03.614Z,3.40
2022-12-06T15:38:32.400Z,2.35
2022-12-06T15:41:01.211Z,2.45
2022-12-06T15:43:34.469Z,2.60
2022-12-06T15:46:07.313Z,2.75
2022-12-06T15:48:37.700Z,1.95
2022-12-06T15:51:11.119Z,1.98
2022-12-06T15:53:42.157Z,2.17
2022-12-06T15:56:20.038Z,2.00
2022-12-06T15:58:47.406Z,2.08
2022-12-06T16:01:32.766Z,1.70
2022-12-06T16:03:59.382Z,1.90
2022-12-06T16:06:27.657Z,1.85
2022-12-06T16:08:54.463Z,1.45
2022-12-06T16:11:24.019Z,1.70
2022-12-06T16:13:50.866Z,2.17
2022-12-06T16:16:20.327Z,1.80
2022-12-06T16:18:50.411Z,1.60
2022-12-06T16:21:22.958Z,1.83
2022-12-06T16:24:17.178Z,1.80
2022-12-06T16:26:46.729Z,2.00
2022-12-06T16:29:32.120Z,2.00
2022-12-06T16:32:00.892Z,1.83
2022-12-06T16:34:37.717Z,2.20
2022-12-06T16:37:07.078Z,2.05
2022-12-06T16:39:35.170Z,2.00
2022-12-06T16:42:04.037Z,2.25
2022-12-06T16:44:33.910Z,2.08
2022-12-06T16:47:01.861Z,1.70
2022-12-06T16:49:45.807Z,1.88
2022-12-06T16:52:16.708Z,1.70
2022-12-06T16:54:46.647Z,1.83
2022-12-06T16:57:14.557Z,1.98
2022-12-06T16:59:42.918Z,1.50
2022-12-06T17:02:26.480Z,1.67
2022-12-06T17:04:53.435Z,1.55
2022-12-06T17:07:20.324Z,1.67
2022-12-06T17:09:46.850Z,1.75
2022-12-06T17:12:15.225Z,1.30
2022-12-06T17:14:42.466Z,1.90
2022-12-06T17:17:17.616Z,1.85
2022-12-06T17:19:44.740Z,1.73
2022-12-06T17:22:12.896Z,2.00
2022-12-06T17:24:39.750Z,2.05
2022-12-06T17:27:09.526Z,2.20
2022-12-06T17:29:39.117Z,1.90
2022-12-06T17:32:06.552Z,2.05
2022-12-06T17:34:36.266Z,2.08
2022-12-06T17:37:03.144Z,2.05
2022-12-06T17:39:29.813Z,1.90
2022-12-06T17:42:17.522Z,1.70
2022-12-06T17:44:44.127Z,2.30
2022-12-06T17:47:10.866Z,1.80
2022-12-06T17:49:38.451Z,1.98
2022-12-06T17:52:07.742Z,2.13
2022-12-06T17:54:34.256Z,2.30
2022-12-06T17:57:00.982Z,1.88
2022-12-06T17:59:30.475Z,2.10
2022-12-06T18:02:16.901Z,1.90
2022-12-06T18:04:45.283Z,2.10
2022-12-06T18:07:13.160Z,2.03
2022-12-06T18:09:39.958Z,2.03
2022-12-06T18:12:09.226Z,1.83
2022-12-06T18:14:38.010Z,1.88
2022-12-06T18:17:04.655Z,1.90
2022-12-06T18:19:31.964Z,2.60
2022-12-06T18:21:58.495Z,2.05
2022-12-06T18:24:29.210Z,2.25
2022-12-06T18:26:59.966Z,2.10
2022-12-06T18:29:26.496Z,2.33
2022-12-06T18:31:53.086Z,2.50
2022-12-06T18:34:23.290Z,2.30
2022-12-06T18:36:50.971Z,2.97
2022-12-06T18:39:24.595Z,2.72
2022-12-06T18:41:53.186Z,2.40
2022-12-06T18:44:22.236Z,2.55
2022-12-06T18:46:49.020Z,2.55
2022-12-06T18:49:15.741Z,2.40
2022-12-06T18:51:45.489Z,2.40
2022-12-06T18:54:14.138Z,2.40
2022-12-06T18:56:41.458Z,2.25
2022-12-06T18:59:09.221Z,2.88
2022-12-06T19:01:38.761Z,2.47
2022-12-06T19:04:06.936Z,2.63
2022-12-06T19:06:40.272Z,2.58
2022-12-06T19:09:13.968Z,2.10
2022-12-06T19:11:42.894Z,2.38
2022-12-06T19:14:10.210Z,2.15
2022-12-06T19:16:48.415Z,2.40
2022-12-06T19:19:35.195Z,2.92
2022-12-06T19:22:04.384Z,2.45
2022-12-06T19:24:31.265Z,2.85
2022-12-06T19:26:58.230Z,2.78
2022-12-06T19:29:25.506Z,3.20
2022-12-06T19:31:52.675Z,3.13
2022-12-06T19:34:25.602Z,2.55
2022-12-06T19:36:54.128Z,2.80
2022-12-06T19:39:21.436Z,2.97
2022-12-06T19:42:06.796Z,2.78
2022-12-06T19:44:33.372Z,2.83
2022-12-06T19:47:00.234Z,2.67
2022-12-06T19:49:28.288Z,2.65
2022-12-06T19:51:55.356Z,3.08
2022-12-06T19:54:25.394Z,3.60
2022-12-06T19:56:53.816Z,4.07
2022-12-06T19:59:21.654Z,3.92
2022-12-06T20:01:48.865Z,3.05
2022-12-06T20:04:24.847Z,3.60
2022-12-06T20:06:52.857Z,3.35
2022-12-06T20:09:22.312Z,3.58
2022-12-06T20:12:01.472Z,3.75
2022-12-06T20:14:46.965Z,3.85
2022-12-06T20:17:19.414Z,4.00
2022-12-06T20:19:46.695Z,3.53
2022-12-06T20:22:14.497Z,4.40
2022-12-06T20:24:41.318Z,4.03
2022-12-06T20:27:10.546Z,4.38
2022-12-06T20:29:37.188Z,4.70
2022-12-06T20:32:04.605Z,4.70
2022-12-06T20:34:34.062Z,4.22
2022-12-06T20:37:03.684Z,4.80
2022-12-06T20:39:32.741Z,4.90
2022-12-06T20:42:03.435Z,5.03
2022-12-06T20:44:30.418Z,4.43
2022-12-06T20:47:00.115Z,4.57
2022-12-06T20:49:26.975Z,5.13
2022-12-06T20:51:53.972Z,4.88
2022-12-06T20:54:22.026Z,5.40
2022-12-06T20:56:51.696Z,5.78
2022-12-06T20:59:19.018Z,5.25
2022-12-06T21:01:45.837Z,5.57
2022-12-06T21:04:13.696Z,5.72
2022-12-06T21:06:40.786Z,5.45
2022-12-06T21:09:07.407Z,6.07
2022-12-06T21:11:34.050Z,5.72
2022-12-06T21:14:00.678Z,5.68
2022-12-06T21:16:29.912Z,5.30
2022-12-06T21:18:59.571Z,5.72
2022-12-06T21:21:32.386Z,5.68
2022-12-06T21:24:00.822Z,6.28
2022-12-06T21:26:28.276Z,6.57
2022-12-06T21:28:55.212Z,5.88
2022-12-06T21:31:29.640Z,6.43
2022-12-06T21:33:56.802Z,5.78
2022-12-06T21:36:23.959Z,6.63
2022-12-06T21:38:50.798Z,6.88
2022-12-06T21:41:17.388Z,6.20
2022-12-06T21:43:44.441Z,6.40
2022-12-06T21:46:14.966Z,6.20
2022-12-06T21:48:42.448Z,6.30
2022-12-06T21:51:11.564Z,6.80
2022-12-06T21:53:38.864Z,6.40
2022-12-06T21:56:10.463Z,6.18
2022-12-06T21:58:37.347Z,5.70
2022-12-06T22:01:09.609Z,5.85
2022-12-06T22:03:36.586Z,5.95
2022-12-06T22:06:08.114Z,6.18
2022-12-06T22:08:38.104Z,5.55
2022-12-06T22:11:13.515Z,5.75
2022-12-06T22:13:40.516Z,5.47
2022-12-06T22:16:09.365Z,6.55
2022-12-06T22:18:44.025Z,5.90
2022-12-06T22:21:18.218Z,5.90
2022-12-06T22:23:46.324Z,5.95
2022-12-06T22:26:15.964Z,6.00
2022-12-06T22:28:42.673Z,5.70
2022-12-06T22:31:15.300Z,6.00
2022-12-06T22:33:42.550Z,6.03
2022-12-06T22:36:10.165Z,5.70
2022-12-06T22:38:36.853Z,5.60
2022-12-06T22:41:04.216Z,5.38
2022-12-06T22:43:33.816Z,5.47
2022-12-06T22:46:09.153Z,5.82
2022-12-06T22:48:36.227Z,5.65
2022-12-06T22:51:16.273Z,6.10
2022-12-06T22:53:47.400Z,5.90
2022-12-06T22:56:15.258Z,6.03
2022-12-06T22:58:42.044Z,6.80
2022-12-06T23:01:15.901Z,6.47
2022-12-06T23:03:45.207Z,6.03
2022-12-06T23:06:14.701Z,6.07
2022-12-06T23:08:41.743Z,6.53
2022-12-06T23:11:19.432Z,6.53
2022-12-06T23:13:49.241Z,6.57
2022-12-06T23:16:26.299Z,7.75
2022-12-06T23:18:55.942Z,6.78
2022-12-06T23:21:25.057Z,6.95
2022-12-06T23:23:54.617Z,7.88
2022-12-06T23:26:24.114Z,6.38
2022-12-06T23:28:51.432Z,6.93
2022-12-06T23:31:22.848Z,7.25
2022-12-06T23:33:58.543Z,7.15
2022-12-06T23:36:27.944Z,7.22
2022-12-06T23:38:54.987Z,7.00
2022-12-06T23:41:23.931Z,7.93
2022-12-06T23:43:51.240Z,6.80
2022-12-06T23:46:23.590Z,6.90
2022-12-06T23:48:51.076Z,7.13
2022-12-06T23:51:23.227Z,7.43
2022-12-06T23:53:56.938Z,7.05
2022-12-06T23:56:24.235Z,6.90
2022-12-06T23:58:51.969Z,7.15
